LNI664 WALL-WAAA
Flight info
| Callsign | LNI664 |
|---|---|
| Flight time | N/A |
| Altitude | 35000 |
| Route | BPN W37 GAMAL |
| Aircraft | B738/M-SDE2E3FGHIRWXY/LB1 |
Departure
| Time | N/A |
|---|---|
| Airport | Sultan Aji Muhammad Sulaiman Sepinggan International Airport (WALL) |
Arrival
| Time | 2026-04-24 08:49 |
|---|---|
| Airport | Sultan Hasanuddin International Airport (WAAA) |
| Time | Latitude | Longitude | Altitude | Speed | Heading |
|---|---|---|---|---|---|
| 2026-04-24 08:01 | -1.54946 | 117.14590 | 15345 ft | 365 kts | 144° |
| 2026-04-24 08:01 | -1.57050 | 117.16017 | 16002 ft | 368 kts | 144° |
| 2026-04-24 08:02 | -1.59179 | 117.17462 | 16661 ft | 371 kts | 144° |
| 2026-04-24 08:02 | -1.61323 | 117.18917 | 17297 ft | 374 kts | 144° |
| 2026-04-24 08:02 | -1.63486 | 117.20385 | 17924 ft | 378 kts | 144° |
| 2026-04-24 08:02 | -1.65668 | 117.21866 | 18470 ft | 381 kts | 144° |
| 2026-04-24 08:03 | -1.67869 | 117.23360 | 18996 ft | 384 kts | 144° |
| 2026-04-24 08:03 | -1.70089 | 117.24867 | 19510 ft | 387 kts | 144° |
| 2026-04-24 08:03 | -1.72331 | 117.26389 | 19977 ft | 392 kts | 144° |
| 2026-04-24 08:03 | -1.74599 | 117.27929 | 20494 ft | 395 kts | 144° |
| 2026-04-24 08:04 | -1.76881 | 117.29478 | 21022 ft | 397 kts | 144° |
| 2026-04-24 08:04 | -1.79174 | 117.31034 | 21521 ft | 400 kts | 144° |
| 2026-04-24 08:04 | -1.81458 | 117.32585 | 21992 ft | 403 kts | 144° |
| 2026-04-24 08:04 | -1.83818 | 117.34187 | 22480 ft | 406 kts | 144° |
| 2026-04-24 08:05 | -1.86137 | 117.35762 | 22944 ft | 409 kts | 144° |
| 2026-04-24 08:05 | -1.88531 | 117.37387 | 23394 ft | 413 kts | 144° |
| 2026-04-24 08:05 | -1.90885 | 117.38986 | 23767 ft | 415 kts | 144° |
| 2026-04-24 08:05 | -1.93280 | 117.40612 | 24153 ft | 418 kts | 144° |
| 2026-04-24 08:06 | -1.95691 | 117.42249 | 24547 ft | 419 kts | 144° |
| 2026-04-24 08:06 | -1.98108 | 117.43891 | 24928 ft | 422 kts | 144° |
| 2026-04-24 08:06 | -2.00544 | 117.45544 | 25303 ft | 424 kts | 144° |
| 2026-04-24 08:06 | -2.02986 | 117.47203 | 25671 ft | 426 kts | 144° |
| 2026-04-24 08:07 | -2.05448 | 117.48875 | 26040 ft | 428 kts | 144° |
| 2026-04-24 08:07 | -2.07921 | 117.50555 | 26407 ft | 430 kts | 144° |
| 2026-04-24 08:07 | -2.10405 | 117.52242 | 26768 ft | 432 kts | 144° |
| 2026-04-24 08:07 | -2.12895 | 117.53934 | 27116 ft | 434 kts | 144° |
| 2026-04-24 08:08 | -2.15404 | 117.55638 | 27457 ft | 437 kts | 144° |
| 2026-04-24 08:08 | -2.17921 | 117.57348 | 27790 ft | 439 kts | 144° |
| 2026-04-24 08:08 | -2.20457 | 117.59070 | 28121 ft | 441 kts | 144° |
| 2026-04-24 08:09 | -2.25536 | 117.62521 | 28955 ft | 440 kts | 144° |
| 2026-04-24 08:09 | -2.28066 | 117.64239 | 29472 ft | 438 kts | 144° |
| 2026-04-24 08:09 | -2.30578 | 117.65946 | 29969 ft | 436 kts | 144° |
| 2026-04-24 08:09 | -2.33079 | 117.67644 | 30361 ft | 435 kts | 144° |
| 2026-04-24 08:10 | -2.35584 | 117.69347 | 30763 ft | 434 kts | 144° |
| 2026-04-24 08:10 | -2.38073 | 117.71038 | 31195 ft | 432 kts | 144° |
| 2026-04-24 08:10 | -2.40559 | 117.72727 | 31647 ft | 430 kts | 144° |
| 2026-04-24 08:10 | -2.43031 | 117.74408 | 32070 ft | 429 kts | 144° |
| 2026-04-24 08:11 | -2.45494 | 117.76081 | 32492 ft | 428 kts | 143° |
| 2026-04-24 08:11 | -2.47960 | 117.77758 | 32807 ft | 429 kts | 143° |
| 2026-04-24 08:11 | -2.50428 | 117.79436 | 32797 ft | 428 kts | 143° |
| 2026-04-24 08:12 | -2.55343 | 117.82777 | 32816 ft | 426 kts | 143° |
| 2026-04-24 08:12 | -2.60248 | 117.86111 | 32824 ft | 426 kts | 143° |
| 2026-04-24 08:13 | -2.65129 | 117.89431 | 32820 ft | 427 kts | 143° |
| 2026-04-24 08:13 | -2.70054 | 117.92779 | 32814 ft | 427 kts | 143° |
| 2026-04-24 08:14 | -2.74970 | 117.96123 | 32818 ft | 427 kts | 143° |
| 2026-04-24 08:14 | -2.79888 | 117.99468 | 32816 ft | 428 kts | 143° |
| 2026-04-24 08:15 | -2.84279 | 118.02455 | 32817 ft | 427 kts | 143° |
| 2026-04-24 08:15 | -2.89219 | 118.05775 | 32816 ft | 427 kts | 144° |
| 2026-04-24 08:16 | -2.93365 | 118.08469 | 32813 ft | 427 kts | 145° |
| 2026-04-24 08:16 | -2.98352 | 118.11695 | 32817 ft | 427 kts | 144° |
| 2026-04-24 08:17 | -3.03326 | 118.14925 | 32813 ft | 427 kts | 144° |
| 2026-04-24 08:17 | -3.08304 | 118.18167 | 32814 ft | 427 kts | 144° |
| 2026-04-24 08:18 | -3.13280 | 118.21410 | 32817 ft | 427 kts | 144° |
| 2026-04-24 08:18 | -3.18253 | 118.24653 | 32816 ft | 426 kts | 144° |
| 2026-04-24 08:19 | -3.23229 | 118.27898 | 32816 ft | 426 kts | 144° |
| 2026-04-24 08:19 | -3.28199 | 118.31138 | 32817 ft | 426 kts | 144° |
| 2026-04-24 08:20 | -3.33173 | 118.34382 | 32816 ft | 426 kts | 144° |
| 2026-04-24 08:20 | -3.38142 | 118.37623 | 32814 ft | 426 kts | 144° |
| 2026-04-24 08:21 | -3.43113 | 118.40866 | 32815 ft | 426 kts | 144° |
| 2026-04-24 08:21 | -3.48080 | 118.44106 | 32813 ft | 426 kts | 144° |
| 2026-04-24 08:22 | -3.53044 | 118.47345 | 32819 ft | 426 kts | 144° |
| 2026-04-24 08:22 | -3.58016 | 118.50589 | 32816 ft | 426 kts | 144° |
| 2026-04-24 08:23 | -3.62975 | 118.53826 | 32812 ft | 426 kts | 144° |
| 2026-04-24 08:23 | -3.67855 | 118.57011 | 32814 ft | 426 kts | 144° |
| 2026-04-24 08:24 | -3.72814 | 118.60249 | 32813 ft | 426 kts | 144° |
| 2026-04-24 08:24 | -3.77778 | 118.63490 | 32812 ft | 426 kts | 144° |
| 2026-04-24 08:25 | -3.82744 | 118.66733 | 32809 ft | 426 kts | 144° |
| 2026-04-24 08:25 | -3.87682 | 118.69958 | 32812 ft | 426 kts | 144° |
| 2026-04-24 08:26 | -3.92647 | 118.73201 | 32808 ft | 426 kts | 144° |
| 2026-04-24 08:26 | -3.97609 | 118.76443 | 32808 ft | 426 kts | 144° |
| 2026-04-24 08:27 | -4.02555 | 118.79674 | 32802 ft | 426 kts | 144° |
| 2026-04-24 08:27 | -4.07529 | 118.82926 | 32718 ft | 429 kts | 144° |
| 2026-04-24 08:27 | -4.10038 | 118.84567 | 32279 ft | 432 kts | 144° |
| 2026-04-24 08:28 | -4.12550 | 118.86208 | 31865 ft | 431 kts | 144° |
| 2026-04-24 08:28 | -4.15062 | 118.87850 | 31433 ft | 431 kts | 144° |
| 2026-04-24 08:28 | -4.17575 | 118.89486 | 31023 ft | 433 kts | 146° |
| 2026-04-24 08:28 | -4.20349 | 118.90707 | 30584 ft | 440 kts | 163° |
| 2026-04-24 08:29 | -4.23403 | 118.91061 | 30199 ft | 445 kts | 177° |
| 2026-04-24 08:29 | -4.26498 | 118.91054 | 29798 ft | 446 kts | 178° |
| 2026-04-24 08:29 | -4.29624 | 118.91012 | 29323 ft | 447 kts | 179° |
| 2026-04-24 08:29 | -4.32735 | 118.90969 | 28856 ft | 448 kts | 179° |
| 2026-04-24 08:30 | -4.35851 | 118.90938 | 28397 ft | 448 kts | 178° |
| 2026-04-24 08:30 | -4.38971 | 118.90921 | 27946 ft | 449 kts | 178° |
| 2026-04-24 08:30 | -4.42084 | 118.90914 | 27495 ft | 444 kts | 178° |
| 2026-04-24 08:30 | -4.45139 | 118.90912 | 27050 ft | 436 kts | 178° |
| 2026-04-24 08:31 | -4.48157 | 118.90912 | 26614 ft | 430 kts | 178° |
| 2026-04-24 08:31 | -4.51095 | 118.90913 | 26196 ft | 425 kts | 178° |
| 2026-04-24 08:31 | -4.54041 | 118.90914 | 25773 ft | 421 kts | 178° |
| 2026-04-24 08:31 | -4.56960 | 118.90915 | 25360 ft | 418 kts | 178° |
| 2026-04-24 08:32 | -4.59893 | 118.90916 | 24946 ft | 415 kts | 178° |
| 2026-04-24 08:32 | -4.62737 | 118.90916 | 24550 ft | 412 kts | 178° |
| 2026-04-24 08:32 | -4.65598 | 118.90916 | 24146 ft | 410 kts | 178° |
| 2026-04-24 08:32 | -4.68455 | 118.90917 | 23769 ft | 408 kts | 178° |
| 2026-04-24 08:33 | -4.71292 | 118.90917 | 23386 ft | 406 kts | 179° |
| 2026-04-24 08:33 | -4.74119 | 118.90917 | 22921 ft | 404 kts | 179° |
| 2026-04-24 08:33 | -4.76923 | 118.90917 | 22465 ft | 402 kts | 179° |
| 2026-04-24 08:33 | -4.79718 | 118.90916 | 22016 ft | 400 kts | 179° |
| 2026-04-24 08:34 | -4.82502 | 118.90916 | 21568 ft | 398 kts | 179° |
| 2026-04-24 08:34 | -4.85266 | 118.90916 | 21127 ft | 396 kts | 179° |
| 2026-04-24 08:34 | -4.88013 | 118.90916 | 20702 ft | 394 kts | 179° |
| 2026-04-24 08:34 | -4.90749 | 118.90916 | 20277 ft | 392 kts | 179° |
| 2026-04-24 08:35 | -4.93468 | 118.90916 | 19858 ft | 389 kts | 179° |
| 2026-04-24 08:35 | -4.96162 | 118.90916 | 19451 ft | 387 kts | 179° |
| 2026-04-24 08:35 | -4.98815 | 118.90916 | 19052 ft | 384 kts | 179° |
| 2026-04-24 08:35 | -5.01505 | 118.90917 | 18652 ft | 382 kts | 179° |
| 2026-04-24 08:36 | -5.04152 | 118.90917 | 18244 ft | 380 kts | 179° |
| 2026-04-24 08:36 | -5.06784 | 118.90917 | 17809 ft | 377 kts | 179° |
| 2026-04-24 08:36 | -5.09368 | 118.90917 | 17359 ft | 375 kts | 179° |
| 2026-04-24 08:36 | -5.11970 | 118.90917 | 16914 ft | 373 kts | 179° |
| 2026-04-24 08:37 | -5.14556 | 118.90917 | 16468 ft | 371 kts | 179° |
| 2026-04-24 08:37 | -5.16996 | 118.90917 | 16062 ft | 369 kts | 179° |
| 2026-04-24 08:37 | -5.19558 | 118.90917 | 15636 ft | 367 kts | 179° |
| 2026-04-24 08:37 | -5.22109 | 118.90917 | 15215 ft | 366 kts | 179° |
| 2026-04-24 08:38 | -5.24612 | 118.91223 | 14769 ft | 364 kts | 160° |
| 2026-04-24 08:38 | -5.26807 | 118.92429 | 14366 ft | 358 kts | 139° |
| 2026-04-24 08:38 | -5.28405 | 118.94309 | 13966 ft | 353 kts | 120° |
| 2026-04-24 08:38 | -5.29336 | 118.96563 | 13558 ft | 349 kts | 103° |
| 2026-04-24 08:39 | -5.29566 | 118.98962 | 13123 ft | 345 kts | 91° |
| 2026-04-24 08:39 | -5.29568 | 119.01210 | 12702 ft | 342 kts | 89° |
| 2026-04-24 08:39 | -5.29534 | 119.03586 | 12260 ft | 339 kts | 89° |
| 2026-04-24 08:39 | -5.29497 | 119.05946 | 11820 ft | 337 kts | 89° |
| 2026-04-24 08:40 | -5.29466 | 119.08284 | 11388 ft | 334 kts | 89° |
| 2026-04-24 08:40 | -5.29443 | 119.10602 | 10966 ft | 330 kts | 89° |
| 2026-04-24 08:40 | -5.29427 | 119.12865 | 10532 ft | 318 kts | 89° |
| 2026-04-24 08:40 | -5.29414 | 119.15053 | 10107 ft | 309 kts | 89° |
| 2026-04-24 08:41 | -5.29404 | 119.17180 | 9694 ft | 300 kts | 89° |
| 2026-04-24 08:41 | -5.29394 | 119.19249 | 9243 ft | 293 kts | 89° |
| 2026-04-24 08:41 | -5.29386 | 119.21277 | 8832 ft | 290 kts | 89° |
| 2026-04-24 08:41 | -5.29377 | 119.23301 | 8442 ft | 290 kts | 89° |
| 2026-04-24 08:42 | -5.29369 | 119.25326 | 8039 ft | 291 kts | 89° |
| 2026-04-24 08:42 | -5.29360 | 119.27356 | 7642 ft | 291 kts | 89° |
| 2026-04-24 08:42 | -5.29352 | 119.29371 | 7225 ft | 285 kts | 89° |
| 2026-04-24 08:42 | -5.29344 | 119.31334 | 6819 ft | 278 kts | 89° |
| 2026-04-24 08:43 | -5.29336 | 119.33253 | 6385 ft | 274 kts | 89° |
| 2026-04-24 08:43 | -5.29328 | 119.35141 | 5978 ft | 268 kts | 89° |
| 2026-04-24 08:43 | -5.29320 | 119.36968 | 5573 ft | 263 kts | 89° |
| 2026-04-24 08:43 | -5.29313 | 119.38765 | 5201 ft | 251 kts | 89° |
| 2026-04-24 08:44 | -5.29306 | 119.40480 | 4811 ft | 240 kts | 89° |
| 2026-04-24 08:44 | -5.29090 | 119.42079 | 4391 ft | 228 kts | 67° |
| 2026-04-24 08:44 | -5.28208 | 119.43339 | 4072 ft | 214 kts | 45° |
| 2026-04-24 08:44 | -5.27048 | 119.44154 | 3958 ft | 196 kts | 31° |
| 2026-04-24 08:45 | -5.25898 | 119.44805 | 3762 ft | 185 kts | 31° |
| 2026-04-24 08:45 | -5.24766 | 119.45445 | 3507 ft | 190 kts | 30° |
| 2026-04-24 08:45 | -5.23581 | 119.46092 | 3154 ft | 192 kts | 30° |
| 2026-04-24 08:45 | -5.22428 | 119.46746 | 2898 ft | 190 kts | 31° |
| 2026-04-24 08:46 | -5.21274 | 119.47412 | 2642 ft | 190 kts | 31° |
| 2026-04-24 08:46 | -5.20154 | 119.48062 | 2421 ft | 179 kts | 31° |
| 2026-04-24 08:46 | -5.19092 | 119.48678 | 2172 ft | 175 kts | 30° |
| 2026-04-24 08:46 | -5.18040 | 119.49289 | 1952 ft | 176 kts | 30° |
| 2026-04-24 08:47 | -5.16988 | 119.49899 | 1727 ft | 174 kts | 30° |
| 2026-04-24 08:47 | -5.15958 | 119.50498 | 1492 ft | 169 kts | 28° |
| 2026-04-24 08:47 | -5.14970 | 119.51072 | 1291 ft | 160 kts | 28° |
| 2026-04-24 08:47 | -5.14012 | 119.51627 | 1117 ft | 158 kts | 29° |
| 2026-04-24 08:48 | -5.13056 | 119.52182 | 897 ft | 155 kts | 30° |
| 2026-04-24 08:48 | -5.12147 | 119.52710 | 707 ft | 151 kts | 26° |
| 2026-04-24 08:48 | -5.11247 | 119.53245 | 565 ft | 159 kts | 29° |
| 2026-04-24 08:48 | -5.10278 | 119.53814 | 378 ft | 158 kts | 26° |
| 2026-04-24 08:49 | -5.09316 | 119.54356 | 126 ft | 155 kts | 27° |
| 2026-04-24 08:49 | -5.08434 | 119.54862 | 40 ft | 132 kts | 29° |
| 2026-04-24 08:49 | -5.07764 | 119.55244 | 41 ft | 89 kts | 32° |
| 2026-04-24 08:49 | -5.07460 | 119.55413 | 40 ft | 42 kts | 16° |
| 2026-04-24 08:50 | -5.07290 | 119.55427 | 38 ft | 13 kts | 360° |
| 2026-04-24 08:50 | -5.07200 | 119.55420 | 40 ft | 13 kts | 334° |
| 2026-04-24 08:50 | -5.07218 | 119.55357 | 40 ft | 12 kts | 207° |
| 2026-04-24 08:50 | -5.07292 | 119.55317 | 40 ft | 12 kts | 208° |
| 2026-04-24 08:51 | -5.07364 | 119.55276 | 40 ft | 12 kts | 211° |
| 2026-04-24 08:51 | -5.07433 | 119.55235 | 40 ft | 12 kts | 210° |
| 2026-04-24 08:51 | -5.07511 | 119.55191 | 40 ft | 12 kts | 210° |
| 2026-04-24 08:51 | -5.07526 | 119.55182 | 39 ft | 3 kts | 210° |
| 2026-04-24 08:52 | -5.07558 | 119.55163 | 40 ft | 8 kts | 209° |
| 2026-04-24 08:52 | -5.07617 | 119.55125 | 40 ft | 12 kts | 229° |
| 2026-04-24 08:52 | -5.07597 | 119.55041 | 40 ft | 14 kts | 298° |
| 2026-04-24 08:52 | -5.07597 | 119.54964 | 39 ft | 9 kts | 207° |
| 2026-04-24 08:53 | -5.07663 | 119.54927 | 40 ft | 13 kts | 210° |
| 2026-04-24 08:53 | -5.07713 | 119.54901 | 40 ft | 6 kts | 193° |
| 2026-04-24 08:53 | -5.07736 | 119.54921 | 38 ft | 5 kts | 119° |
| 2026-04-24 08:53 | -5.07750 | 119.54944 | 38 ft | 3 kts | 120° |
| 2026-04-24 08:54 | -5.07756 | 119.54954 | 38 ft | 1 kts | 121° |
| 2026-04-24 08:54 | -5.07757 | 119.54956 | 39 ft | 0 kts | 120° |